Time;durP1;ratioP1;P1;durP2;ratioP2;P2;SDS_P1;SDS_P2;PMS_P1;PMS_P2;Temp;Humidity;BMP_temperature;BMP_pressure;BME280_temperature;BME280_humidity;BME280_pressure;Samples;Min_cycle;Max_cycle;Signal;HPM_P1;HPM_P2
2022/02/26 00:02:22;;;;;;;;;8.00;7.50;;;;;-147.17;100.00;59696.56;5006915;28;51353;-60
2022/02/26 00:04:47;;;;;;;;;11.00;8.50;;;;;-147.17;100.00;59696.56;5003262;28;52003;-60
2022/02/26 00:07:13;;;;;;;;;9.50;9.25;;;;;-147.17;100.00;59696.56;5003350;28;51084;-60
2022/02/26 00:09:38;;;;;;;;;11.50;10.50;;;;;-147.17;100.00;59696.56;5004238;28;51045;-60
2022/02/26 00:12:04;;;;;;;;;10.75;8.75;;;;;-147.17;100.00;59696.56;5004173;28;51038;-60
2022/02/26 00:14:30;;;;;;;;;12.00;8.00;;;;;-147.17;100.00;59696.56;5000090;28;51133;-58
2022/02/26 00:16:55;;;;;;;;;10.00;10.00;;;;;-147.17;100.00;59696.56;5001539;28;51360;-59
2022/02/26 00:19:21;;;;;;;;;11.75;10.25;;;;;-147.17;100.00;59696.56;5001021;28;51385;-59
2022/02/26 00:21:46;;;;;;;;;12.25;10.50;;;;;-147.17;100.00;59696.56;5001852;28;52679;-60
2022/02/26 00:24:13;;;;;;;;;9.25;8.00;;;;;-147.17;100.00;59696.56;5003934;28;52312;-59
2022/02/26 00:26:38;;;;;;;;;9.25;9.25;;;;;-147.17;100.00;59696.56;5004067;28;51219;-59
2022/02/26 00:29:04;;;;;;;;;9.25;7.75;;;;;-147.17;100.00;59696.56;5004705;28;51224;-59
2022/02/26 00:31:29;;;;;;;;;7.00;7.00;;;;;-147.17;100.00;59696.56;5001886;28;51236;-59
2022/02/26 00:33:55;;;;;;;;;9.00;7.75;;;;;-147.17;100.00;59696.56;5002943;28;51307;-59
2022/02/26 00:36:20;;;;;;;;;7.75;7.25;;;;;-147.17;100.00;59696.56;5003024;28;51328;-59
2022/02/26 00:38:46;;;;;;;;;11.00;8.00;;;;;-147.17;100.00;59696.56;5004692;28;51163;-59
2022/02/26 00:41:11;;;;;;;;;10.00;9.75;;;;;-147.17;100.00;59696.56;5001812;28;53316;-59
2022/02/26 00:43:36;;;;;;;;;10.25;9.50;;;;;-147.17;100.00;59696.56;5001306;28;51060;-59
2022/02/26 00:46:03;;;;;;;;;8.75;8.00;;;;;-147.17;100.00;59696.56;4997873;28;51133;-59
2022/02/26 00:51:12;;;;;;;;;7.75;7.00;;;;;-147.17;100.00;59696.56;5003527;28;51291;-59
2022/02/26 00:53:37;;;;;;;;;4.25;2.75;;;;;-147.17;100.00;59696.56;5002763;28;51424;-63
2022/02/26 00:56:03;;;;;;;;;8.75;8.00;;;;;-147.17;100.00;59696.56;5000720;28;51262;-59
2022/02/26 00:58:29;;;;;;;;;12.25;9.75;;;;;-147.17;100.00;59696.56;5002778;28;52188;-59
2022/02/26 01:00:54;;;;;;;;;11.00;9.75;;;;;-147.17;100.00;59696.56;5002196;28;51494;-59
2022/02/26 01:03:20;;;;;;;;;15.25;11.00;;;;;-147.17;100.00;59696.56;5001118;28;51245;-59
2022/02/26 01:05:45;;;;;;;;;11.50;9.00;;;;;-147.17;100.00;59696.56;5000688;28;51310;-60
2022/02/26 01:08:10;;;;;;;;;7.00;7.00;;;;;-147.17;100.00;59696.56;4999075;28;51469;-59
2022/02/26 01:10:36;;;;;;;;;8.75;8.50;;;;;-147.17;100.00;59696.56;5000382;28;51338;-60
2022/02/26 01:13:01;;;;;;;;;9.00;8.50;;;;;-147.17;100.00;59696.56;4993808;28;51217;-60
2022/02/26 01:15:26;;;;;;;;;7.00;6.50;;;;;-147.17;100.00;59696.56;4997863;28;51247;-59
2022/02/26 01:17:52;;;;;;;;;8.50;8.00;;;;;-147.17;100.00;59696.56;4998489;28;52113;-59
2022/02/26 01:20:18;;;;;;;;;11.00;8.25;;;;;-147.17;100.00;59696.56;5002074;28;51540;-59
2022/02/26 01:22:44;;;;;;;;;7.50;7.50;;;;;-147.17;100.00;59696.56;4999056;28;52370;-59
2022/02/26 01:25:09;;;;;;;;;9.75;7.00;;;;;-147.17;100.00;59696.56;5000150;28;51180;-59
2022/02/26 01:27:39;;;;;;;;;9.00;7.50;;;;;-147.17;100.00;59696.56;4996128;28;51239;-59
2022/02/26 01:30:05;;;;;;;;;8.00;6.00;;;;;-147.17;100.00;59696.56;5001962;28;51264;-59
2022/02/26 01:32:31;;;;;;;;;10.50;8.50;;;;;-147.17;100.00;59696.56;4998408;28;52087;-60
2022/02/26 01:34:56;;;;;;;;;17.75;16.50;;;;;-147.17;100.00;59696.56;5000801;28;51177;-59
2022/02/26 01:37:21;;;;;;;;;9.75;9.75;;;;;-147.17;100.00;59696.56;4999563;28;52818;-59
2022/02/26 01:39:47;;;;;;;;;17.00;14.00;;;;;-147.17;100.00;59696.56;5001931;28;51387;-59
2022/02/26 01:42:14;;;;;;;;;13.00;9.50;;;;;-147.17;100.00;59696.56;5002004;28;51113;-59
2022/02/26 01:44:45;;;;;;;;;10.50;7.25;;;;;-147.17;100.00;59696.56;4999988;28;51180;-60
2022/02/26 01:47:11;;;;;;;;;10.00;9.75;;;;;-147.17;100.00;59696.56;5014432;28;51305;-59
2022/02/26 01:49:36;;;;;;;;;14.50;10.25;;;;;-147.17;100.00;59696.56;5000118;28;52214;-60
2022/02/26 01:52:02;;;;;;;;;14.75;11.75;;;;;-147.17;100.00;59696.56;4995121;28;53701;-59
2022/02/26 01:54:27;;;;;;;;;12.50;11.75;;;;;-147.17;100.00;59696.56;5014104;28;51160;-60
2022/02/26 01:56:52;;;;;;;;;11.25;11.00;;;;;-147.17;100.00;59696.56;4998457;28;52124;-59
2022/02/26 01:59:19;;;;;;;;;20.00;15.00;;;;;-147.17;100.00;59696.56;4999143;28;51237;-59
2022/02/26 02:01:44;;;;;;;;;22.00;19.50;;;;;-147.17;100.00;59696.56;4998447;28;51141;-59
2022/02/26 02:04:10;;;;;;;;;31.50;29.50;;;;;-147.17;100.00;59696.56;4999918;28;51145;-60
2022/02/26 02:06:35;;;;;;;;;31.50;28.75;;;;;-147.17;100.00;59696.56;4997065;28;52346;-59
2022/02/26 02:09:01;;;;;;;;;37.00;34.25;;;;;-147.17;100.00;59696.56;4999316;28;52423;-59
2022/02/26 02:11:29;;;;;;;;;25.50;25.25;;;;;-147.17;100.00;59696.56;4998735;28;52643;-60
2022/02/26 02:13:55;;;;;;;;;30.75;29.75;;;;;-147.17;100.00;59696.56;4999851;28;51140;-59
2022/02/26 02:16:20;;;;;;;;;29.75;24.25;;;;;-147.17;100.00;59696.56;4998969;28;51172;-58
2022/02/26 02:18:46;;;;;;;;;19.25;17.75;;;;;-147.17;100.00;59696.56;5000109;28;51484;-59
2022/02/26 02:21:11;;;;;;;;;20.75;20.75;;;;;-147.17;100.00;59696.56;4997051;28;52918;-59
2022/02/26 02:23:37;;;;;;;;;19.00;16.00;;;;;-147.17;100.00;59696.56;5003010;28;51128;-59
2022/02/26 02:26:02;;;;;;;;;20.50;17.25;;;;;-147.17;100.00;59696.56;5000797;28;51223;-59
2022/02/26 02:28:28;;;;;;;;;13.00;11.25;;;;;-147.17;100.00;59696.56;4997009;28;51399;-59
2022/02/26 02:30:53;;;;;;;;;15.75;15.25;;;;;-147.17;100.00;59696.56;4994776;28;53235;-60
2022/02/26 02:33:19;;;;;;;;;12.25;10.25;;;;;-147.17;100.00;59696.56;5001819;28;51156;-59
2022/02/26 02:35:44;;;;;;;;;12.00;12.00;;;;;-147.17;100.00;59696.56;4998712;28;51186;-60
2022/02/26 02:38:15;;;;;;;;;12.00;11.75;;;;;-147.17;100.00;59696.56;4998658;28;51377;-60
2022/02/26 02:40:42;;;;;;;;;14.50;13.00;;;;;-147.17;100.00;59696.56;4997594;28;52145;-59
2022/02/26 02:43:09;;;;;;;;;12.00;10.50;;;;;-147.17;100.00;59696.56;4999988;28;52351;-59
2022/02/26 02:45:36;;;;;;;;;11.25;9.75;;;;;-147.17;100.00;59696.56;5000070;28;51308;-59
2022/02/26 02:48:02;;;;;;;;;10.00;9.25;;;;;-147.17;100.00;59696.56;4998615;28;51450;-59
2022/02/26 02:50:28;;;;;;;;;12.50;10.75;;;;;-147.17;100.00;59696.56;5001292;28;51232;-59
2022/02/26 02:52:54;;;;;;;;;12.25;11.00;;;;;-147.17;100.00;59696.56;4998081;28;51183;-59
2022/02/26 02:55:21;;;;;;;;;12.50;11.00;;;;;-147.17;100.00;59696.56;5002661;28;51116;-59
2022/02/26 02:57:48;;;;;;;;;10.50;10.00;;;;;-147.17;100.00;59696.56;5011534;28;52331;-61
2022/02/26 03:00:14;;;;;;;;;12.25;10.25;;;;;-147.17;100.00;59696.56;4998931;28;51089;-59
2022/02/26 03:02:41;;;;;;;;;14.50;11.75;;;;;-147.17;100.00;59696.56;5000870;28;52539;-59
2022/02/26 03:05:09;;;;;;;;;15.50;15.00;;;;;-147.17;100.00;59696.56;5001950;28;51128;-60
2022/02/26 03:07:35;;;;;;;;;17.50;15.50;;;;;-147.17;100.00;59696.56;5003674;28;51108;-59
2022/02/26 03:10:00;;;;;;;;;13.25;12.00;;;;;-147.17;100.00;59696.56;5004228;28;51978;-60
2022/02/26 03:12:26;;;;;;;;;15.25;13.25;;;;;-147.17;100.00;59696.56;5001557;28;51195;-60
2022/02/26 03:14:51;;;;;;;;;15.00;14.25;;;;;-147.17;100.00;59696.56;5021748;28;51145;-59
2022/02/26 03:17:16;;;;;;;;;14.00;11.75;;;;;-147.17;100.00;59696.56;4999351;28;52208;-59
2022/02/26 03:19:47;;;;;;;;;14.00;11.25;;;;;-147.17;100.00;59696.56;5002395;28;51989;-59
2022/02/26 03:22:12;;;;;;;;;15.25;14.00;;;;;-147.17;100.00;59696.56;5002875;28;51239;-61
2022/02/26 03:24:38;;;;;;;;;13.00;11.00;;;;;-147.17;100.00;59696.56;5002534;28;51093;-58
2022/02/26 03:27:03;;;;;;;;;7.75;7.75;;;;;-147.17;100.00;59696.56;5004162;28;52541;-59
2022/02/26 03:29:29;;;;;;;;;8.25;8.25;;;;;-147.17;100.00;59696.56;4999658;28;51152;-59
2022/02/26 03:31:55;;;;;;;;;9.75;8.50;;;;;-147.17;100.00;59696.56;4998325;28;52432;-59
2022/02/26 03:34:21;;;;;;;;;9.50;9.50;;;;;-147.17;100.00;59696.56;5000666;28;52686;-59
2022/02/26 03:36:48;;;;;;;;;10.75;10.00;;;;;-147.17;100.00;59696.56;5002518;28;51333;-59
2022/02/26 03:39:15;;;;;;;;;11.50;7.75;;;;;-147.17;100.00;59696.56;5001426;28;52232;-59
2022/02/26 03:41:41;;;;;;;;;14.25;12.00;;;;;-147.17;100.00;59696.56;5002103;28;52708;-58
2022/02/26 03:44:08;;;;;;;;;12.00;12.00;;;;;-147.17;100.00;59696.56;5000830;28;51078;-59
2022/02/26 03:46:34;;;;;;;;;14.50;13.75;;;;;-147.17;100.00;59696.56;5000087;28;51264;-59
2022/02/26 03:49:00;;;;;;;;;14.75;14.75;;;;;-147.17;100.00;59696.56;5002219;28;51092;-59
2022/02/26 03:51:25;;;;;;;;;18.50;16.25;;;;;-147.17;100.00;59696.56;5000837;28;51281;-59
2022/02/26 03:53:51;;;;;;;;;15.25;14.25;;;;;-147.17;100.00;59696.56;4998668;28;51740;-59
2022/02/26 03:56:16;;;;;;;;;19.00;18.25;;;;;-147.17;100.00;59696.56;4998769;28;51065;-59
2022/02/26 03:58:42;;;;;;;;;20.75;17.75;;;;;-147.17;100.00;59696.56;4999262;28;51963;-59
2022/02/26 04:01:07;;;;;;;;;14.00;12.75;;;;;-147.17;100.00;59696.56;4998509;28;51121;-59
2022/02/26 04:03:33;;;;;;;;;15.25;14.50;;;;;-147.17;100.00;59696.56;4997590;28;51709;-59
2022/02/26 04:05:58;;;;;;;;;17.00;16.00;;;;;-147.17;100.00;59696.56;5001080;28;50960;-60
2022/02/26 04:08:23;;;;;;;;;16.00;15.50;;;;;-147.17;100.00;59696.56;5002118;28;51061;-59
2022/02/26 04:10:49;;;;;;;;;12.00;11.00;;;;;-147.17;100.00;59696.56;5014909;28;51067;-59
2022/02/26 04:13:14;;;;;;;;;14.50;14.50;;;;;-147.17;100.00;59696.56;5005503;28;51227;-59
2022/02/26 04:15:39;;;;;;;;;12.50;12.00;;;;;-147.17;100.00;59696.56;5003638;28;51247;-59
2022/02/26 04:18:05;;;;;;;;;17.75;15.00;;;;;-147.17;100.00;59696.56;5003370;28;51523;-59
2022/02/26 04:20:30;;;;;;;;;12.50;12.50;;;;;-147.17;100.00;59696.56;5002136;28;51121;-59
2022/02/26 04:22:56;;;;;;;;;11.75;11.00;;;;;-147.17;100.00;59696.56;5015287;28;51187;-60
2022/02/26 04:25:21;;;;;;;;;13.75;12.00;;;;;-147.17;100.00;59696.56;5004282;28;51665;-59
2022/02/26 04:27:46;;;;;;;;;10.50;9.75;;;;;-147.17;100.00;59696.56;5000594;28;51104;-60
2022/02/26 04:30:12;;;;;;;;;16.75;14.00;;;;;-147.17;100.00;59696.56;5002432;28;51124;-59
2022/02/26 04:32:39;;;;;;;;;13.75;12.00;;;;;-147.17;100.00;59696.56;5001011;28;51329;-60
2022/02/26 04:35:05;;;;;;;;;16.75;15.75;;;;;-147.17;100.00;59696.56;5001268;28;51239;-59
2022/02/26 04:37:31;;;;;;;;;14.75;13.75;;;;;-147.17;100.00;59696.56;5000695;28;51222;-59
2022/02/26 04:39:58;;;;;;;;;13.00;11.50;;;;;-147.17;100.00;59696.56;5001775;28;51544;-61
2022/02/26 04:42:24;;;;;;;;;12.00;11.50;;;;;-147.17;100.00;59696.56;5001581;28;52217;-59
2022/02/26 04:44:50;;;;;;;;;10.25;10.25;;;;;-147.17;100.00;59696.56;5000254;28;51095;-59
2022/02/26 04:47:15;;;;;;;;;11.25;11.00;;;;;-147.17;100.00;59696.56;4998550;28;51132;-58
2022/02/26 04:49:40;;;;;;;;;12.25;11.25;;;;;-147.17;100.00;59696.56;5000086;28;51513;-60
2022/02/26 04:52:06;;;;;;;;;10.25;9.50;;;;;-147.17;100.00;59696.56;5001374;28;51183;-60
2022/02/26 04:54:33;;;;;;;;;13.25;12.00;;;;;-147.17;100.00;59696.56;5000011;28;51330;-60
2022/02/26 04:56:59;;;;;;;;;11.00;9.25;;;;;-147.17;100.00;59696.56;5000858;28;51812;-60
2022/02/26 04:59:24;;;;;;;;;10.50;9.75;;;;;-147.17;100.00;59696.56;5001355;28;51060;-58
2022/02/26 05:01:50;;;;;;;;;10.75;10.25;;;;;-147.17;100.00;59696.56;4999209;28;51219;-61
2022/02/26 05:04:15;;;;;;;;;13.00;11.50;;;;;-147.17;100.00;59696.56;4999093;28;52074;-60
2022/02/26 05:06:40;;;;;;;;;15.75;11.75;;;;;-147.17;100.00;59696.56;4997327;28;51711;-59
2022/02/26 05:09:06;;;;;;;;;16.00;14.00;;;;;-147.17;100.00;59696.56;5000793;28;51172;-59
2022/02/26 05:11:31;;;;;;;;;12.25;12.00;;;;;-147.17;100.00;59696.56;4999705;28;51060;-58
2022/02/26 05:13:56;;;;;;;;;9.25;8.00;;;;;-147.17;100.00;59696.56;4998131;28;50991;-59
2022/02/26 05:16:22;;;;;;;;;11.75;11.00;;;;;-147.17;100.00;59696.56;4997332;28;52059;-59
2022/02/26 05:18:47;;;;;;;;;14.75;14.00;;;;;-147.17;100.00;59696.56;5000214;28;52331;-59
2022/02/26 05:21:13;;;;;;;;;10.00;10.00;;;;;-147.17;100.00;59696.56;4997878;28;51127;-59
2022/02/26 05:23:41;;;;;;;;;13.50;12.00;;;;;-147.17;100.00;59696.56;4998251;28;51231;-59
2022/02/26 05:26:11;;;;;;;;;10.00;10.00;;;;;-147.17;100.00;59696.56;4996263;28;51945;-59
2022/02/26 05:28:37;;;;;;;;;14.50;12.75;;;;;-147.17;100.00;59696.56;4999782;28;52841;-59
2022/02/26 05:31:03;;;;;;;;;10.25;10.25;;;;;-147.17;100.00;59696.56;4997619;28;52136;-60
2022/02/26 05:33:28;;;;;;;;;12.25;11.00;;;;;-147.17;100.00;59696.56;4999886;28;51289;-59
2022/02/26 05:35:53;;;;;;;;;12.00;11.25;;;;;-147.17;100.00;59696.56;4999208;28;52020;-59
2022/02/26 05:38:19;;;;;;;;;10.25;9.75;;;;;-147.17;100.00;59696.56;5002972;28;51053;-59
2022/02/26 05:40:44;;;;;;;;;11.25;11.25;;;;;-147.17;100.00;59696.56;5000282;28;51172;-59
2022/02/26 05:43:10;;;;;;;;;11.75;11.25;;;;;-147.17;100.00;59696.56;5001410;28;51542;-60
2022/02/26 05:45:35;;;;;;;;;12.00;11.50;;;;;-147.17;100.00;59696.56;5000814;28;51097;-59
2022/02/26 05:48:00;;;;;;;;;10.00;9.00;;;;;-147.17;100.00;59696.56;4999716;28;53242;-59
2022/02/26 05:50:26;;;;;;;;;11.00;8.75;;;;;-147.17;100.00;59696.56;5002937;28;51215;-60
2022/02/26 05:52:51;;;;;;;;;7.00;7.00;;;;;-147.17;100.00;59696.56;4996711;28;52390;-61
2022/02/26 05:55:17;;;;;;;;;5.00;5.00;;;;;-147.17;100.00;59696.56;5001195;28;51100;-59
2022/02/26 05:57:42;;;;;;;;;7.00;7.00;;;;;-147.17;100.00;59696.56;5012365;28;52344;-59
2022/02/26 06:00:09;;;;;;;;;8.00;8.00;;;;;-147.17;100.00;59696.56;5014403;28;51289;-59
2022/02/26 06:02:34;;;;;;;;;9.25;7.00;;;;;-147.17;100.00;59696.56;4997117;28;51128;-60
2022/02/26 06:05:00;;;;;;;;;6.50;6.00;;;;;-147.17;100.00;59696.56;4999572;28;51906;-59
2022/02/26 06:07:25;;;;;;;;;6.25;6.00;;;;;-147.17;100.00;59696.56;5001603;28;51140;-59
2022/02/26 06:09:51;;;;;;;;;6.00;6.00;;;;;-147.17;100.00;59696.56;5003823;28;51180;-60
2022/02/26 06:12:16;;;;;;;;;6.25;6.25;;;;;-147.17;100.00;59696.56;4999704;28;50960;-60
2022/02/26 06:14:41;;;;;;;;;11.00;9.25;;;;;-147.17;100.00;59696.56;4999689;28;51243;-61
2022/02/26 06:17:07;;;;;;;;;6.50;6.50;;;;;-147.17;100.00;59696.56;4999596;28;51623;-60
2022/02/26 06:19:32;;;;;;;;;7.50;7.50;;;;;-147.17;100.00;59696.56;5000415;28;51157;-59
2022/02/26 06:21:57;;;;;;;;;6.00;6.00;;;;;-147.17;100.00;59696.56;5002007;28;51273;-59
2022/02/26 06:24:23;;;;;;;;;7.75;6.25;;;;;-147.17;100.00;59696.56;5017105;28;53696;-61
2022/02/26 06:26:48;;;;;;;;;6.00;6.00;;;;;-147.17;100.00;59696.56;4980469;28;51381;-60
2022/02/26 06:29:13;;;;;;;;;7.00;6.00;;;;;-147.17;100.00;59696.56;5001768;28;52047;-59
2022/02/26 06:31:39;;;;;;;;;6.25;6.00;;;;;-147.17;100.00;59696.56;4998944;28;51225;-59
2022/02/26 06:34:05;;;;;;;;;9.75;8.00;;;;;-147.17;100.00;59696.56;5001441;28;52710;-59
2022/02/26 06:36:33;;;;;;;;;8.50;6.25;;;;;-147.17;100.00;59696.56;5001229;28;51132;-59
2022/02/26 06:38:59;;;;;;;;;5.25;5.00;;;;;-147.17;100.00;59696.56;5002126;28;51155;-59
2022/02/26 06:41:24;;;;;;;;;6.75;6.75;;;;;-147.17;100.00;59696.56;5002018;28;51330;-60
2022/02/26 06:43:50;;;;;;;;;5.75;5.00;;;;;-147.17;100.00;59696.56;4997551;28;52019;-59
2022/02/26 06:46:15;;;;;;;;;8.00;7.25;;;;;-147.17;100.00;59696.56;5016432;28;51128;-59
2022/02/26 06:48:41;;;;;;;;;2.00;1.50;;;;;-147.17;100.00;59696.56;5000779;28;51112;-59
2022/02/26 06:51:07;;;;;;;;;6.00;6.00;;;;;-147.17;100.00;59696.56;4999379;28;51284;-59
2022/02/26 06:53:32;;;;;;;;;6.50;6.00;;;;;-147.17;100.00;59696.56;4999152;28;51242;-59
2022/02/26 06:55:57;;;;;;;;;8.50;7.00;;;;;-147.17;100.00;59696.56;4992384;28;51222;-59
2022/02/26 06:58:23;;;;;;;;;10.50;8.50;;;;;-147.17;100.00;59696.56;4994924;28;51231;-60
2022/02/26 07:00:48;;;;;;;;;7.00;7.00;;;;;-147.17;100.00;59696.56;4994779;28;51444;-60
2022/02/26 07:03:14;;;;;;;;;9.25;9.25;;;;;-147.17;100.00;59696.56;4998451;28;51861;-60
2022/02/26 07:05:39;;;;;;;;;5.75;5.00;;;;;-147.17;100.00;59696.56;4998445;28;52115;-60
2022/02/26 07:08:05;;;;;;;;;7.25;6.25;;;;;-147.17;100.00;59696.56;4998859;28;51149;-59
2022/02/26 07:10:31;;;;;;;;;10.75;10.00;;;;;-147.17;100.00;59696.56;5001980;28;51022;-59
2022/02/26 07:12:56;;;;;;;;;10.50;10.00;;;;;-147.17;100.00;59696.56;4999300;28;51764;-59
2022/02/26 07:15:21;;;;;;;;;7.00;6.00;;;;;-147.17;100.00;59696.56;5002231;28;51569;-59
2022/02/26 07:17:47;;;;;;;;;9.50;8.00;;;;;-147.17;100.00;59696.56;4999178;28;51081;-59
2022/02/26 07:20:12;;;;;;;;;8.00;6.75;;;;;-147.17;100.00;59696.56;5001389;28;51405;-58
2022/02/26 07:22:38;;;;;;;;;9.00;9.00;;;;;-147.17;100.00;59696.56;4998908;28;52455;-59
2022/02/26 07:25:04;;;;;;;;;9.00;7.00;;;;;-147.17;100.00;59696.56;4998869;28;51140;-59
2022/02/26 07:27:30;;;;;;;;;7.50;7.50;;;;;-147.17;100.00;59696.56;4997256;28;52243;-60
2022/02/26 07:29:55;;;;;;;;;9.75;9.25;;;;;-147.17;100.00;59696.56;4998771;28;51282;-59
2022/02/26 07:32:20;;;;;;;;;7.50;7.50;;;;;-147.17;100.00;59696.56;5001719;28;51077;-60
2022/02/26 07:34:46;;;;;;;;;13.50;10.00;;;;;-147.17;100.00;59696.56;4998760;28;51128;-60
2022/02/26 07:37:11;;;;;;;;;6.00;5.00;;;;;-147.17;100.00;59696.56;4998738;28;51144;-60
2022/02/26 07:39:37;;;;;;;;;9.50;9.50;;;;;-147.17;100.00;59696.56;5014772;28;51365;-60
2022/02/26 07:42:02;;;;;;;;;8.00;6.50;;;;;-147.17;100.00;59696.56;4996418;28;52009;-60
2022/02/26 07:44:28;;;;;;;;;10.50;8.00;;;;;-147.17;100.00;59696.56;5000848;28;52279;-60
2022/02/26 07:46:53;;;;;;;;;5.00;5.00;;;;;-147.17;100.00;59696.56;5000286;28;51168;-61
2022/02/26 07:49:19;;;;;;;;;10.25;10.25;;;;;-147.17;100.00;59696.56;5001603;28;51318;-63
2022/02/26 07:51:44;;;;;;;;;14.50;10.75;;;;;-147.17;100.00;59696.56;4993528;28;52182;-64
2022/02/26 07:54:09;;;;;;;;;11.00;10.00;;;;;-147.17;100.00;59696.56;5001061;28;51014;-63
2022/02/26 07:56:35;;;;;;;;;8.50;8.50;;;;;-147.17;100.00;59696.56;5003106;28;51305;-63
2022/02/26 07:59:00;;;;;;;;;12.25;10.50;;;;;-147.17;100.00;59696.56;5003641;28;51063;-63
2022/02/26 08:01:25;;;;;;;;;9.00;7.50;;;;;-147.17;100.00;59696.56;5001005;28;52374;-63
2022/02/26 08:03:51;;;;;;;;;11.00;9.00;;;;;-147.17;100.00;59696.56;5008301;28;51257;-63
2022/02/26 08:06:16;;;;;;;;;10.25;9.00;;;;;-147.17;100.00;59696.56;5011682;28;51086;-63
2022/02/26 08:08:42;;;;;;;;;12.00;9.75;;;;;-147.17;100.00;59696.56;5010657;28;51037;-62
2022/02/26 08:11:07;;;;;;;;;12.50;11.25;;;;;-147.17;100.00;59696.56;5011747;28;51881;-62
2022/02/26 08:13:33;;;;;;;;;12.50;9.25;;;;;-147.17;100.00;59696.56;5012863;28;51100;-62
2022/02/26 08:15:58;;;;;;;;;8.25;7.25;;;;;-147.17;100.00;59696.56;5012523;28;51287;-62
2022/02/26 08:18:24;;;;;;;;;7.50;6.50;;;;;-147.17;100.00;59696.56;5008316;28;51322;-62
2022/02/26 08:20:49;;;;;;;;;8.75;8.75;;;;;-147.17;100.00;59696.56;5013118;28;52641;-62
2022/02/26 08:23:15;;;;;;;;;12.50;11.00;;;;;-147.17;100.00;59696.56;5013933;28;51120;-62
2022/02/26 08:25:40;;;;;;;;;9.75;9.00;;;;;-147.17;100.00;59696.56;5013749;28;51490;-62
2022/02/26 08:28:05;;;;;;;;;10.50;10.25;;;;;-147.17;100.00;59696.56;5011857;28;51156;-61
2022/02/26 08:30:31;;;;;;;;;12.00;11.00;;;;;-147.17;100.00;59696.56;5013544;28;51616;-61
2022/02/26 08:32:58;;;;;;;;;7.50;7.50;;;;;-147.17;100.00;59696.56;5011437;28;51076;-61
2022/02/26 08:35:23;;;;;;;;;14.00;11.50;;;;;-147.17;100.00;59696.56;5013541;28;50875;-60
2022/02/26 08:37:49;;;;;;;;;13.00;13.00;;;;;-147.17;100.00;59696.56;5012532;28;51101;-64
2022/02/26 08:40:15;;;;;;;;;9.00;9.00;;;;;-147.17;100.00;59696.56;5008995;28;51137;-61
2022/02/26 08:42:41;;;;;;;;;14.00;13.00;;;;;-147.17;100.00;59696.56;5007879;28;51282;-61
2022/02/26 08:45:07;;;;;;;;;9.00;8.67;;;;;-147.17;100.00;59696.56;4997149;28;52745;-60
2022/02/26 08:47:34;;;;;;;;;13.67;11.67;;;;;-147.17;100.00;59696.56;5009945;28;51120;-59
2022/02/26 08:50:01;;;;;;;;;9.00;9.00;;;;;-147.17;100.00;59696.56;4999441;28;52139;-59
2022/02/26 08:52:27;;;;;;;;;8.33;8.33;;;;;-147.17;100.00;59696.56;5009483;28;52392;-60
2022/02/26 08:54:53;;;;;;;;;11.67;9.67;;;;;-147.17;100.00;59696.56;5012493;28;51192;-60
2022/02/26 08:57:19;;;;;;;;;8.00;7.00;;;;;-147.17;100.00;59696.56;5010150;28;51034;-60
2022/02/26 08:59:45;;;;;;;;;11.00;10.33;;;;;-147.17;100.00;59696.56;5004573;28;51749;-60
2022/02/26 09:02:10;;;;;;;;;10.33;10.33;;;;;-147.17;100.00;59696.56;5018294;28;50931;-60
2022/02/26 09:04:36;;;;;;;;;11.00;9.00;;;;;-147.17;100.00;59696.56;5005425;28;51630;-59
2022/02/26 09:07:03;;;;;;;;;9.33;8.33;;;;;-147.17;100.00;59696.56;5011885;28;51124;-59
2022/02/26 09:09:29;;;;;;;;;9.00;8.00;;;;;-147.17;100.00;59696.56;5010221;28;52623;-59
2022/02/26 09:11:54;;;;;;;;;9.67;9.00;;;;;-147.17;100.00;59696.56;5009304;28;51281;-60
2022/02/26 09:14:20;;;;;;;;;9.00;7.67;;;;;-147.17;100.00;59696.56;5002766;28;51870;-59
2022/02/26 09:16:45;;;;;;;;;6.33;6.33;;;;;-147.17;100.00;59696.56;5010388;28;51390;-59
2022/02/26 09:19:11;;;;;;;;;6.00;5.00;;;;;-147.17;100.00;59696.56;5010968;28;51664;-60
2022/02/26 09:21:37;;;;;;;;;6.67;6.67;;;;;-147.17;100.00;59696.56;5009316;28;50970;-60
2022/02/26 09:24:02;;;;;;;;;7.33;7.00;;;;;-147.17;100.00;59696.56;5008837;28;51251;-60
2022/02/26 09:26:29;;;;;;;;;8.33;7.00;;;;;-147.17;100.00;59696.56;5008634;28;51402;-61
2022/02/26 09:28:54;;;;;;;;;8.00;6.33;;;;;-147.17;100.00;59696.56;5008563;28;52708;-60
2022/02/26 09:31:20;;;;;;;;;6.67;6.00;;;;;-147.17;100.00;59696.56;4999000;28;51729;-59
2022/02/26 09:33:46;;;;;;;;;5.67;5.33;;;;;-147.17;100.00;59696.56;5002867;28;51197;-60
2022/02/26 09:36:11;;;;;;;;;5.00;4.67;;;;;-147.17;100.00;59696.56;5009452;28;51081;-61
2022/02/26 09:38:38;;;;;;;;;7.00;7.00;;;;;-147.17;100.00;59696.56;5011937;28;51069;-59
2022/02/26 09:41:05;;;;;;;;;3.67;2.00;;;;;-147.17;100.00;59696.56;5009744;28;51278;-60
2022/02/26 09:43:31;;;;;;;;;3.00;2.33;;;;;-147.17;100.00;59696.56;5004943;28;52660;-61
2022/02/26 09:45:57;;;;;;;;;7.00;5.33;;;;;-147.17;100.00;59696.56;4999134;28;52528;-61
2022/02/26 09:48:23;;;;;;;;;7.00;6.00;;;;;-147.17;100.00;59696.56;5005845;28;53112;-61
2022/02/26 09:50:51;;;;;;;;;6.00;6.00;;;;;-147.17;100.00;59696.56;5003577;28;51256;-60
2022/02/26 09:53:17;;;;;;;;;6.33;6.33;;;;;-147.17;100.00;59696.56;5015725;28;51223;-62
2022/02/26 09:55:44;;;;;;;;;4.00;4.00;;;;;-147.17;100.00;59696.56;5008400;28;51175;-60
2022/02/26 09:58:11;;;;;;;;;7.33;6.00;;;;;-147.17;100.00;59696.56;5011273;28;51245;-62
2022/02/26 10:00:37;;;;;;;;;6.00;5.33;;;;;-147.17;100.00;59696.56;5010740;28;50957;-61
2022/02/26 10:03:04;;;;;;;;;4.33;4.33;;;;;-147.17;100.00;59696.56;5039191;28;51036;-61
2022/02/26 10:05:30;;;;;;;;;4.33;4.00;;;;;-147.17;100.00;59696.56;5012801;28;51160;-62
2022/02/26 10:07:56;;;;;;;;;5.00;4.00;;;;;-147.17;100.00;59696.56;5010411;28;51732;-61
2022/02/26 10:10:28;;;;;;;;;2.00;2.00;;;;;-147.17;100.00;59696.56;5010854;28;50988;-61
2022/02/26 10:12:59;;;;;;;;;4.00;3.00;;;;;-147.17;100.00;59696.56;5012493;28;50944;-61
2022/02/26 10:15:39;;;;;;;;;6.67;5.00;;;;;-147.17;100.00;59696.56;5011911;28;51039;-60
2022/02/26 10:18:09;;;;;;;;;7.00;4.00;;;;;-147.17;100.00;59696.56;5011458;28;52916;-60
2022/02/26 10:20:44;;;;;;;;;4.33;4.33;;;;;-147.17;100.00;59696.56;5012060;28;50961;-60
2022/02/26 10:23:15;;;;;;;;;3.00;3.00;;;;;-147.17;100.00;59696.56;5011713;28;51094;-60
2022/02/26 10:25:41;;;;;;;;;4.00;4.00;;;;;-147.17;100.00;59696.56;5011817;28;52018;-61
2022/02/26 10:28:11;;;;;;;;;5.67;5.33;;;;;-147.17;100.00;59696.56;5010400;28;52564;-61
2022/02/26 10:30:45;;;;;;;;;5.67;5.00;;;;;-147.17;100.00;59696.56;5009954;28;51058;-60
2022/02/26 10:33:17;;;;;;;;;3.00;2.00;;;;;-147.17;100.00;59696.56;5010945;28;51105;-61
2022/02/26 10:35:44;;;;;;;;;5.33;3.67;;;;;-147.17;100.00;59696.56;5011429;28;51322;-62
2022/02/26 10:38:20;;;;;;;;;3.00;3.00;;;;;-147.17;100.00;59696.56;5010907;28;52826;-61
2022/02/26 10:41:14;;;;;;;;;5.00;5.00;;;;;-147.17;100.00;59696.56;5010958;28;51269;-61
2022/02/26 10:44:01;;;;;;;;;4.67;4.00;;;;;-147.17;100.00;59696.56;5011844;28;51086;-60
2022/02/26 10:46:33;;;;;;;;;6.67;5.33;;;;;-147.17;100.00;59696.56;5011701;28;50903;-61
2022/02/26 10:49:12;;;;;;;;;7.00;6.00;;;;;-147.17;100.00;59696.56;5010644;28;51901;-61
2022/02/26 10:51:40;;;;;;;;;5.00;4.67;;;;;-147.17;100.00;59696.56;5010879;28;50953;-61
2022/02/26 10:54:16;;;;;;;;;4.67;4.00;;;;;-147.17;100.00;59696.56;5010930;28;51055;-62
2022/02/26 10:56:44;;;;;;;;;7.00;6.67;;;;;-147.17;100.00;59696.56;5011502;28;51124;-61
2022/02/26 10:59:12;;;;;;;;;5.00;5.00;;;;;-147.17;100.00;59696.56;5025945;28;53043;-61
2022/02/26 11:01:38;;;;;;;;;5.00;4.33;;;;;-147.17;100.00;59696.56;5026322;28;51305;-61